Detall de PIREP

Printer-friendly versionPDF version

[2017/08/09 05:27:00]
Flight IATA:CT0001
Pilot Number:041
Company ICAO:CAT
Aircraft Type:B738/F
PAX:119
Departing Airport: LEVC
Destination Airport: LEMH
Alternate Airport:LEPA
Online: VATSIM
Route:ORVUS M871 PTC
Flight Level:FL240
No Slew and time accel
No pause
Crash detect
Detect pilot in Cockpit between each 30 and 45 minutes
05:27 Zero fuel Weight: 135502 Lbs, Fuel Weight: 10011 Lbs
05:27 VATSIM:LEVC 090500Z 03003KT 340V060 9999 FEW030 24/16 Q1015 NOSIG
05:27 VATSIM:LEMH 090500Z 05014KT 9999 FEW020 23/18 Q1015
05:27 VOICE CATALONIAN
05:27 Parking Brakes off
05:33 Take-off
05:33 Take off Weight: 144745 Lbs
05:33 Wind: 073º @ 009 Knots Heading: 114º
05:33 POS N39º 29´ 22´´ W000º 28´ 56´´
05:33 Gear Up: 169 Knots
05:33 Flaps:3 at 169 Knots
05:33 Flaps:2 at 168 Knots
05:34 Flaps:1 at 185 Knots
05:34 Flaps:0 at 198 Knots
05:43 TOC
05:43 Fuel Weight: 6737 Lb
05:48 Wind:276º@036 Knots Heading: 086º Ground Speed: 466 Knots Altitude 23943 ft
05:55 TOD
05:55 Fuel Weight: 5420 Lb
06:03 Wind:304º@024 Knots Heading: 300º Ground Speed: 279 Knots Altitude 16938 ft
06:13 Flaps:1 at 247 Knots
06:13 Flaps:2 at 246 Knots
06:13 Flaps:3 at 245 Knots
06:14 Flaps:4 at 241 Knots
06:16 Flaps:5 at 210 Knots
06:16 Flaps:7 at 165 Knots
06:16 Flaps:8 at 165 Knots
06:16 Gear Down: 168 Knots
06:18 Wind:210º@007 Knots Heading: 008º Ground Speed: 149 Knots Altitude 1853 ft
06:20 TouchDown:Rate -212 ft/min Speed: 128 Knots
06:20 VATSIM:LEMH 090600Z 05012KT 9999 FEW020 23/17 Q1015
06:20 Land
06:20 Wind:218º@007 Knots
06:20 Heading: 008º
06:20 Flight Duration: 00:47
06:20 Landing Weight: 139096 Lbs
06:20 POS N39º 52´ 04´´ E004º 13´ 10´´
06:23 Parking brakes on
06:23 Block to Block Duration: 00:56
06:23 Final Fuel: 3328 Lbls
06:23 Spent Fuel: 6682 Lbls
06:23 Flight Length: 272 NM
06:23 TOD Land Length: 120 NM

Exportar CSV

Powered by Drupal - Modified by Danger4k